sensor_id;sensor_type;location;lat;lon;timestamp;pressure;altitude;pressure_sealevel;temperature;humidity
60589;BME280;46421;48.610;9.334;2023-01-28T00:00:23;98561.59;;;-0.61;92.56
60589;BME280;46421;48.610;9.334;2023-01-28T00:02:48;98563.19;;;-0.58;93.98
60589;BME280;46421;48.610;9.334;2023-01-28T00:05:14;98574.47;;;-0.43;93.30
60589;BME280;46421;48.610;9.334;2023-01-28T00:07:40;98560.09;;;-0.36;93.48
60589;BME280;46421;48.610;9.334;2023-01-28T00:10:05;98556.66;;;-0.37;91.84
60589;BME280;46421;48.610;9.334;2023-01-28T00:12:31;98564.88;;;-0.43;93.00
60589;BME280;46421;48.610;9.334;2023-01-28T00:14:56;98558.34;;;-0.36;92.69
60589;BME280;46421;48.610;9.334;2023-01-28T00:17:22;98554.75;;;-0.35;92.22
60589;BME280;46421;48.610;9.334;2023-01-28T00:19:47;98560.47;;;-0.28;91.86
60589;BME280;46421;48.610;9.334;2023-01-28T00:22:12;98553.38;;;-0.40;92.65
60589;BME280;46421;48.610;9.334;2023-01-28T00:24:38;98556.19;;;-0.43;93.37
60589;BME280;46421;48.610;9.334;2023-01-28T00:27:03;98550.88;;;-0.27;92.92
60589;BME280;46421;48.610;9.334;2023-01-28T00:29:29;98549.81;;;-0.25;91.42
60589;BME280;46421;48.610;9.334;2023-01-28T00:31:54;98548.69;;;-0.21;91.47
60589;BME280;46421;48.610;9.334;2023-01-28T00:34:19;98542.84;;;-0.39;92.90
60589;BME280;46421;48.610;9.334;2023-01-28T00:36:45;98545.97;;;-0.19;91.81
60589;BME280;46421;48.610;9.334;2023-01-28T00:39:25;98542.09;;;-0.41;92.05
60589;BME280;46421;48.610;9.334;2023-01-28T00:41:51;98551.88;;;-0.59;92.98
60589;BME280;46421;48.610;9.334;2023-01-28T00:44:17;98539.75;;;-0.45;92.82
60589;BME280;46421;48.610;9.334;2023-01-28T00:46:42;98544.03;;;-0.30;92.29
60589;BME280;46421;48.610;9.334;2023-01-28T00:49:08;98549.84;;;-0.39;91.54
60589;BME280;46421;48.610;9.334;2023-01-28T00:51:34;98544.78;;;-0.42;92.25
60589;BME280;46421;48.610;9.334;2023-01-28T00:53:59;98544.03;;;-0.44;93.29
60589;BME280;46421;48.610;9.334;2023-01-28T00:56:25;98552.34;;;-0.38;90.88
60589;BME280;46421;48.610;9.334;2023-01-28T00:58:50;98539.75;;;-0.45;92.18
60589;BME280;46421;48.610;9.334;2023-01-28T01:01:21;98544.59;;;-0.54;91.29
60589;BME280;46421;48.610;9.334;2023-01-28T01:03:47;98554.50;;;-0.59;92.43
60589;BME280;46421;48.610;9.334;2023-01-28T01:06:23;98550.03;;;-0.42;91.42
60589;BME280;46421;48.610;9.334;2023-01-28T01:08:49;98547.41;;;-0.42;92.38
60589;BME280;46421;48.610;9.334;2023-01-28T01:11:15;98552.47;;;-0.39;91.93
60589;BME280;46421;48.610;9.334;2023-01-28T01:13:41;98538.81;;;-0.44;92.68
60589;BME280;46421;48.610;9.334;2023-01-28T01:16:10;98551.16;;;-0.32;91.42
60589;BME280;46421;48.610;9.334;2023-01-28T01:18:37;98549.06;;;-0.27;91.49
60589;BME280;46421;48.610;9.334;2023-01-28T01:21:17;98549.47;;;-0.33;91.51
60589;BME280;46421;48.610;9.334;2023-01-28T01:23:43;98553.38;;;-0.26;91.38
60589;BME280;46421;48.610;9.334;2023-01-28T01:26:09;98538.63;;;-0.41;92.00
60589;BME280;46421;48.610;9.334;2023-01-28T01:28:35;98538.81;;;-0.44;92.21
60589;BME280;46421;48.610;9.334;2023-01-28T01:31:06;98550.56;;;-0.37;91.45
60589;BME280;46421;48.610;9.334;2023-01-28T01:33:32;98557.31;;;-0.47;91.65
60589;BME280;46421;48.610;9.334;2023-01-28T01:35:57;98554.41;;;-0.43;92.40
60589;BME280;46421;48.610;9.334;2023-01-28T01:38:23;98555.34;;;-0.29;91.49
60589;BME280;46421;48.610;9.334;2023-01-28T01:40:49;98558.41;;;-0.37;92.44
60589;BME280;46421;48.610;9.334;2023-01-28T01:43:16;98560.28;;;-0.39;92.21
60589;BME280;46421;48.610;9.334;2023-01-28T01:45:42;98558.88;;;-0.30;91.00
60589;BME280;46421;48.610;9.334;2023-01-28T01:48:22;98566.44;;;-0.26;90.75
60589;BME280;46421;48.610;9.334;2023-01-28T01:50:56;98562.03;;;-0.25;91.02
60589;BME280;46421;48.610;9.334;2023-01-28T01:53:23;98564.78;;;-0.56;91.90
60589;BME280;46421;48.610;9.334;2023-01-28T01:55:53;98559.53;;;-0.41;90.38
60589;BME280;46421;48.610;9.334;2023-01-28T01:58:23;98563.63;;;-0.37;90.93
60589;BME280;46421;48.610;9.334;2023-01-28T02:00:50;98570.75;;;-0.39;91.81
60589;BME280;46421;48.610;9.334;2023-01-28T02:03:18;98569.25;;;-0.43;91.23
60589;BME280;46421;48.610;9.334;2023-01-28T02:05:48;98570.53;;;-0.36;92.00
60589;BME280;46421;48.610;9.334;2023-01-28T02:08:14;98568.47;;;-0.31;91.30
60589;BME280;46421;48.610;9.334;2023-01-28T02:10:49;98570.38;;;-0.33;91.28
60589;BME280;46421;48.610;9.334;2023-01-28T02:13:16;98571.19;;;-0.33;91.91
60589;BME280;46421;48.610;9.334;2023-01-28T02:15:43;98575.75;;;-0.22;90.52
60589;BME280;46421;48.610;9.334;2023-01-28T02:18:10;98579.41;;;-0.24;91.39
60589;BME280;46421;48.610;9.334;2023-01-28T02:24:08;98586.88;;;-0.33;90.43
60589;BME280;46421;48.610;9.334;2023-01-28T02:29:32;98577.81;;;-0.27;90.92
60589;BME280;46421;48.610;9.334;2023-01-28T02:35:11;98572.13;;;-0.48;90.62
60589;BME280;46421;48.610;9.334;2023-01-28T02:37:52;98583.41;;;-0.19;90.72
60589;BME280;46421;48.610;9.334;2023-01-28T02:40:24;98578.75;;;-0.28;92.12
60589;BME280;46421;48.610;9.334;2023-01-28T02:42:54;98581.75;;;-0.34;92.84
60589;BME280;46421;48.610;9.334;2023-01-28T02:45:26;98583.88;;;-0.41;93.13
60589;BME280;46421;48.610;9.334;2023-01-28T02:48:11;98578.66;;;-0.41;92.41
60589;BME280;46421;48.610;9.334;2023-01-28T02:50:47;98585.38;;;-0.37;93.88
60589;BME280;46421;48.610;9.334;2023-01-28T02:53:29;98576.97;;;-0.42;93.91
60589;BME280;46421;48.610;9.334;2023-01-28T03:01:25;98581.66;;;-0.47;95.34
60589;BME280;46421;48.610;9.334;2023-01-28T03:04:03;98588.00;;;-0.51;95.53
60589;BME280;46421;48.610;9.334;2023-01-28T03:06:39;98580.63;;;-0.44;94.70
60589;BME280;46421;48.610;9.334;2023-01-28T03:09:07;98592.25;;;-0.65;95.95
60589;BME280;46421;48.610;9.334;2023-01-28T03:14:37;98586.13;;;-0.64;96.69
60589;BME280;46421;48.610;9.334;2023-01-28T03:17:44;98569.41;;;-0.75;97.17
60589;BME280;46421;48.610;9.334;2023-01-28T03:20:36;98587.53;;;-0.58;96.62
60589;BME280;46421;48.610;9.334;2023-01-28T03:23:26;98587.91;;;-0.50;96.62
60589;BME280;46421;48.610;9.334;2023-01-28T03:26:13;98588.00;;;-0.37;95.82
60589;BME280;46421;48.610;9.334;2023-01-28T03:29:05;98584.91;;;-0.43;95.77
60589;BME280;46421;48.610;9.334;2023-01-28T03:31:50;98593.03;;;-0.48;96.10
60589;BME280;46421;48.610;9.334;2023-01-28T03:34:36;98582.94;;;-0.54;96.36
60589;BME280;46421;48.610;9.334;2023-01-28T03:37:21;98585.84;;;-0.59;95.91
60589;BME280;46421;48.610;9.334;2023-01-28T03:39:46;98587.69;;;-0.46;96.41
60589;BME280;46421;48.610;9.334;2023-01-28T03:42:13;98592.25;;;-0.65;96.60
60589;BME280;46421;48.610;9.334;2023-01-28T03:44:39;98593.28;;;-0.53;95.96
60589;BME280;46421;48.610;9.334;2023-01-28T03:47:22;98603.03;;;-0.55;97.46
60589;BME280;46421;48.610;9.334;2023-01-28T03:49:49;98596.78;;;-0.52;97.10
60589;BME280;46421;48.610;9.334;2023-01-28T03:52:17;98596.56;;;-0.49;96.73
60589;BME280;46421;48.610;9.334;2023-01-28T03:54:47;98603.31;;;-0.45;96.08
60589;BME280;46421;48.610;9.334;2023-01-28T03:57:16;98611.50;;;-0.37;95.38
60589;BME280;46421;48.610;9.334;2023-01-28T03:59:42;98614.66;;;-0.32;95.82
60589;BME280;46421;48.610;9.334;2023-01-28T04:02:08;98614.13;;;-0.37;95.39
60589;BME280;46421;48.610;9.334;2023-01-28T04:04:38;98603.75;;;-0.53;95.73
60589;BME280;46421;48.610;9.334;2023-01-28T04:07:05;98598.34;;;-0.64;96.09
60589;BME280;46421;48.610;9.334;2023-01-28T04:09:33;98608.03;;;-0.52;96.58
60589;BME280;46421;48.610;9.334;2023-01-28T04:12:00;98609.81;;;-0.52;96.66
60589;BME280;46421;48.610;9.334;2023-01-28T04:14:25;98594.53;;;-0.58;96.58
60589;BME280;46421;48.610;9.334;2023-01-28T04:16:50;98603.38;;;-0.46;96.84
60589;BME280;46421;48.610;9.334;2023-01-28T04:19:19;98602.38;;;-0.58;96.91
60589;BME280;46421;48.610;9.334;2023-01-28T04:21:45;98599.19;;;-0.49;96.54
60589;BME280;46421;48.610;9.334;2023-01-28T04:24:12;98597.41;;;-0.49;97.16
60589;BME280;46421;48.610;9.334;2023-01-28T04:26:37;98614.03;;;-0.50;96.45
60589;BME280;46421;48.610;9.334;2023-01-28T04:29:02;98611.84;;;-0.57;97.97
60589;BME280;46421;48.610;9.334;2023-01-28T04:31:28;98613.91;;;-0.48;96.65
60589;BME280;46421;48.610;9.334;2023-01-28T04:33:54;98619.63;;;-0.41;96.49
60589;BME280;46421;48.610;9.334;2023-01-28T04:36:19;98627.84;;;-0.33;96.38
60589;BME280;46421;48.610;9.334;2023-01-28T04:38:44;98634.00;;;-0.49;96.49
60589;BME280;46421;48.610;9.334;2023-01-28T04:41:10;98630.53;;;-0.49;96.92
60589;BME280;46421;48.610;9.334;2023-01-28T04:43:35;98636.50;;;-0.47;96.43
60589;BME280;46421;48.610;9.334;2023-01-28T04:46:01;98640.81;;;-0.32;96.97
60589;BME280;46421;48.610;9.334;2023-01-28T04:48:26;98642.88;;;-0.37;96.33
60589;BME280;46421;48.610;9.334;2023-01-28T04:50:51;98637.25;;;-0.30;95.88
60589;BME280;46421;48.610;9.334;2023-01-28T04:53:17;98643.41;;;-0.32;96.21
60589;BME280;46421;48.610;9.334;2023-01-28T04:55:44;98639.00;;;-0.31;95.98
60589;BME280;46421;48.610;9.334;2023-01-28T04:58:09;98640.91;;;-0.33;97.14
60589;BME280;46421;48.610;9.334;2023-01-28T05:00:34;98636.78;;;-0.23;96.90
60589;BME280;46421;48.610;9.334;2023-01-28T05:03:00;98638.66;;;-0.25;97.30
60589;BME280;46421;48.610;9.334;2023-01-28T05:05:25;98641.06;;;-0.22;96.48
60589;BME280;46421;48.610;9.334;2023-01-28T05:07:55;98650.50;;;-0.19;96.15
60589;BME280;46421;48.610;9.334;2023-01-28T05:10:21;98638.00;;;-0.14;95.27
60589;BME280;46421;48.610;9.334;2023-01-28T05:12:47;98643.88;;;-0.10;94.69
60589;BME280;46421;48.610;9.334;2023-01-28T05:15:14;98634.91;;;-0.21;95.44
60589;BME280;46421;48.610;9.334;2023-01-28T05:17:40;98644.81;;;-0.26;95.50
60589;BME280;46421;48.610;9.334;2023-01-28T05:20:08;98644.28;;;-0.17;94.64
60589;BME280;46421;48.610;9.334;2023-01-28T05:22:33;98654.69;;;-0.31;96.46
60589;BME280;46421;48.610;9.334;2023-01-28T05:24:59;98644.44;;;-0.20;95.53
60589;BME280;46421;48.610;9.334;2023-01-28T05:27:24;98655.72;;;-0.19;95.66
60589;BME280;46421;48.610;9.334;2023-01-28T05:29:49;98648.63;;;-0.17;95.49
60589;BME280;46421;48.610;9.334;2023-01-28T05:32:15;98655.81;;;-0.21;95.88
60589;BME280;46421;48.610;9.334;2023-01-28T05:34:40;98649.94;;;-0.24;95.96
60589;BME280;46421;48.610;9.334;2023-01-28T05:37:05;98643.78;;;-0.23;96.40
60589;BME280;46421;48.610;9.334;2023-01-28T05:39:31;98650.31;;;-0.30;96.59
60589;BME280;46421;48.610;9.334;2023-01-28T05:41:56;98641.19;;;-0.23;96.20
60589;BME280;46421;48.610;9.334;2023-01-28T05:44:22;98650.44;;;-0.32;96.69
60589;BME280;46421;48.610;9.334;2023-01-28T05:46:47;98647.72;;;-0.45;97.11
60589;BME280;46421;48.610;9.334;2023-01-28T05:49:12;98655.72;;;-0.48;97.49
60589;BME280;46421;48.610;9.334;2023-01-28T05:51:39;98655.53;;;-0.45;98.60
60589;BME280;46421;48.610;9.334;2023-01-28T05:54:07;98659.63;;;-0.41;97.71
60589;BME280;46421;48.610;9.334;2023-01-28T05:56:33;98650.59;;;-0.35;97.26
60589;BME280;46421;48.610;9.334;2023-01-28T05:59:01;98648.09;;;-0.37;97.17
60589;BME280;46421;48.610;9.334;2023-01-28T06:01:26;98663.38;;;-0.30;97.96
60589;BME280;46421;48.610;9.334;2023-01-28T06:03:51;98656.19;;;-0.27;96.90
60589;BME280;46421;48.610;9.334;2023-01-28T06:06:17;98657.31;;;-0.31;97.06
60589;BME280;46421;48.610;9.334;2023-01-28T06:08:42;98665.13;;;-0.45;97.35
60589;BME280;46421;48.610;9.334;2023-01-28T06:11:08;98660.56;;;-0.42;98.16
60589;BME280;46421;48.610;9.334;2023-01-28T06:13:33;98664.47;;;-0.49;97.96
60589;BME280;46421;48.610;9.334;2023-01-28T06:15:58;98668.13;;;-0.52;98.74
60589;BME280;46421;48.610;9.334;2023-01-28T06:18:24;98674.19;;;-0.51;99.40
60589;BME280;46421;48.610;9.334;2023-01-28T06:20:49;98677.47;;;-0.47;98.46
60589;BME280;46421;48.610;9.334;2023-01-28T06:23:15;98659.75;;;0.15;95.33
60589;BME280;46421;48.610;9.334;2023-01-28T06:25:40;98673.03;;;-0.17;96.50
60589;BME280;46421;48.610;9.334;2023-01-28T06:28:06;98676.34;;;-0.29;97.29
60589;BME280;46421;48.610;9.334;2023-01-28T06:30:31;98678.31;;;-0.33;96.68
60589;BME280;46421;48.610;9.334;2023-01-28T06:32:56;98691.66;;;-0.37;97.43
60589;BME280;46421;48.610;9.334;2023-01-28T06:35:22;98689.25;;;0.03;97.65
60589;BME280;46421;48.610;9.334;2023-01-28T06:37:47;98694.84;;;-0.03;96.62
60589;BME280;46421;48.610;9.334;2023-01-28T06:40:13;98686.72;;;-0.27;97.74
60589;BME280;46421;48.610;9.334;2023-01-28T06:42:38;98706.03;;;-0.30;97.81
60589;BME280;46421;48.610;9.334;2023-01-28T06:45:04;98701.28;;;-0.38;97.71
60589;BME280;46421;48.610;9.334;2023-01-28T06:47:29;98707.53;;;-0.26;97.45
60589;BME280;46421;48.610;9.334;2023-01-28T06:49:55;98720.09;;;-0.47;99.16
60589;BME280;46421;48.610;9.334;2023-01-28T06:52:20;98710.31;;;-0.43;98.15
60589;BME280;46421;48.610;9.334;2023-01-28T06:54:46;98714.59;;;-0.42;98.85
60589;BME280;46421;48.610;9.334;2023-01-28T06:57:11;98712.00;;;-0.42;99.21
60589;BME280;46421;48.610;9.334;2023-01-28T06:59:36;98716.47;;;-0.30;98.77
60589;BME280;46421;48.610;9.334;2023-01-28T07:02:02;98728.59;;;-0.29;98.99
60589;BME280;46421;48.610;9.334;2023-01-28T07:04:27;98723.97;;;-0.24;98.60
60589;BME280;46421;48.610;9.334;2023-01-28T07:06:52;98724.53;;;-0.19;98.30
60589;BME280;46421;48.610;9.334;2023-01-28T07:09:17;98729.94;;;-0.22;98.44
60589;BME280;46421;48.610;9.334;2023-01-28T07:11:43;98727.69;;;-0.13;97.59
60589;BME280;46421;48.610;9.334;2023-01-28T07:14:08;98730.91;;;-0.08;97.48
60589;BME280;46421;48.610;9.334;2023-01-28T07:16:34;98724.25;;;-0.28;98.35
60589;BME280;46421;48.610;9.334;2023-01-28T07:18:59;98728.59;;;-0.43;99.50
60589;BME280;46421;48.610;9.334;2023-01-28T07:21:24;98735.03;;;-0.35;99.21
60589;BME280;46421;48.610;9.334;2023-01-28T07:23:50;98734.44;;;-0.24;98.90
60589;BME280;46421;48.610;9.334;2023-01-28T07:26:15;98731.31;;;-0.30;99.72
60589;BME280;46421;48.610;9.334;2023-01-28T07:28:41;98736.00;;;-0.21;99.10
60589;BME280;46421;48.610;9.334;2023-01-28T07:31:06;98742.91;;;-0.20;98.88
60589;BME280;46421;48.610;9.334;2023-01-28T07:33:32;98742.56;;;-0.14;99.18
60589;BME280;46421;48.610;9.334;2023-01-28T07:35:57;98744.25;;;-0.13;98.61
60589;BME280;46421;48.610;9.334;2023-01-28T07:38:22;98742.44;;;-0.12;98.85
60589;BME280;46421;48.610;9.334;2023-01-28T07:40:48;98740.88;;;-0.15;98.89
60589;BME280;46421;48.610;9.334;2023-01-28T07:43:13;98751.50;;;-0.18;98.22
60589;BME280;46421;48.610;9.334;2023-01-28T07:45:39;98750.50;;;-0.01;97.32
60589;BME280;46421;48.610;9.334;2023-01-28T07:48:06;98752.19;;;0.00;98.51
60589;BME280;46421;48.610;9.334;2023-01-28T07:50:33;98745.44;;;0.10;96.26
60589;BME280;46421;48.610;9.334;2023-01-28T07:53:00;98749.66;;;0.13;96.65
60589;BME280;46421;48.610;9.334;2023-01-28T07:55:26;98749.84;;;0.24;95.98
60589;BME280;46421;48.610;9.334;2023-01-28T07:57:55;98754.97;;;0.26;95.89
60589;BME280;46421;48.610;9.334;2023-01-28T08:00:22;98751.16;;;0.31;96.01
60589;BME280;46421;48.610;9.334;2023-01-28T08:02:48;98757.97;;;0.34;95.00
60589;BME280;46421;48.610;9.334;2023-01-28T08:05:17;98758.19;;;0.31;95.62
60589;BME280;46421;48.610;9.334;2023-01-28T08:07:44;98768.81;;;0.28;95.73
60589;BME280;46421;48.610;9.334;2023-01-28T08:10:11;98771.97;;;0.33;95.01
60589;BME280;46421;48.610;9.334;2023-01-28T08:12:37;98774.59;;;0.47;94.42
60589;BME280;46421;48.610;9.334;2023-01-28T08:15:03;98779.81;;;0.33;93.75
60589;BME280;46421;48.610;9.334;2023-01-28T08:17:30;98790.31;;;0.62;93.48
60589;BME280;46421;48.610;9.334;2023-01-28T08:19:55;98777.47;;;0.72;92.23
60589;BME280;46421;48.610;9.334;2023-01-28T08:22:24;98779.22;;;0.71;91.36
60589;BME280;46421;48.610;9.334;2023-01-28T08:24:49;98777.66;;;0.69;91.85
60589;BME280;46421;48.610;9.334;2023-01-28T08:27:15;98774.94;;;0.70;91.39
60589;BME280;46421;48.610;9.334;2023-01-28T08:29:40;98780.09;;;0.72;91.07
60589;BME280;46421;48.610;9.334;2023-01-28T08:32:08;98775.81;;;0.42;92.60
60589;BME280;46421;48.610;9.334;2023-01-28T08:34:33;98780.56;;;0.64;92.64
60589;BME280;46421;48.610;9.334;2023-01-28T08:36:58;98774.66;;;0.89;90.98
60589;BME280;46421;48.610;9.334;2023-01-28T08:39:24;98777.34;;;0.88;90.79
60589;BME280;46421;48.610;9.334;2023-01-28T08:41:49;98775.06;;;0.96;90.35
60589;BME280;46421;48.610;9.334;2023-01-28T08:44:14;98774.34;;;0.79;90.59
60589;BME280;46421;48.610;9.334;2023-01-28T08:46:40;98776.94;;;0.94;90.62
60589;BME280;46421;48.610;9.334;2023-01-28T08:49:05;98773.78;;;0.89;90.13
60589;BME280;46421;48.610;9.334;2023-01-28T08:51:30;98782.25;;;1.07;90.05
60589;BME280;46421;48.610;9.334;2023-01-28T08:53:56;98787.41;;;0.94;90.96
60589;BME280;46421;48.610;9.334;2023-01-28T08:56:21;98786.59;;;0.93;89.56
60589;BME280;46421;48.610;9.334;2023-01-28T08:58:46;98788.66;;;0.88;90.22
60589;BME280;46421;48.610;9.334;2023-01-28T09:01:12;98785.00;;;0.91;90.96
60589;BME280;46421;48.610;9.334;2023-01-28T09:03:37;98800.50;;;0.94;90.75
60589;BME280;46421;48.610;9.334;2023-01-28T09:06:03;98797.81;;;0.96;89.16
60589;BME280;46421;48.610;9.334;2023-01-28T09:08:29;98799.00;;;1.04;89.48
60589;BME280;46421;48.610;9.334;2023-01-28T09:10:55;98790.59;;;0.99;90.15
60589;BME280;46421;48.610;9.334;2023-01-28T09:13:21;98797.28;;;1.18;89.73
60589;BME280;46421;48.610;9.334;2023-01-28T09:15:46;98793.13;;;1.28;88.55
60589;BME280;46421;48.610;9.334;2023-01-28T09:18:12;98789.63;;;1.15;89.34
60589;BME280;46421;48.610;9.334;2023-01-28T09:20:37;98804.94;;;1.21;87.37
60589;BME280;46421;48.610;9.334;2023-01-28T09:23:02;98806.41;;;1.25;88.60
60589;BME280;46421;48.610;9.334;2023-01-28T09:25:28;98808.19;;;1.52;86.99
60589;BME280;46421;48.610;9.334;2023-01-28T09:27:54;98807.09;;;1.41;87.43
60589;BME280;46421;48.610;9.334;2023-01-28T09:30:19;98808.78;;;1.42;87.17
60589;BME280;46421;48.610;9.334;2023-01-28T09:32:48;98813.59;;;1.36;86.88
60589;BME280;46421;48.610;9.334;2023-01-28T09:35:14;98815.25;;;1.37;86.78
60589;BME280;46421;48.610;9.334;2023-01-28T09:37:40;98815.47;;;1.61;86.38
60589;BME280;46421;48.610;9.334;2023-01-28T09:40:06;98820.03;;;1.45;86.54
60589;BME280;46421;48.610;9.334;2023-01-28T09:47:59;98823.63;;;2.10;82.50
60589;BME280;46421;48.610;9.334;2023-01-28T09:50:46;98819.75;;;2.41;81.19
60589;BME280;46421;48.610;9.334;2023-01-28T09:55:40;98822.09;;;2.96;79.63
60589;BME280;46421;48.610;9.334;2023-01-28T09:58:13;98834.19;;;3.23;76.86
60589;BME280;46421;48.610;9.334;2023-01-28T10:03:51;98832.88;;;2.67;77.89
60589;BME280;46421;48.610;9.334;2023-01-28T10:06:29;98835.06;;;2.60;78.44
60589;BME280;46421;48.610;9.334;2023-01-28T10:12:03;98829.56;;;2.76;77.65
60589;BME280;46421;48.610;9.334;2023-01-28T10:14:49;98825.66;;;2.95;77.47
60589;BME280;46421;48.610;9.334;2023-01-28T10:17:38;98825.25;;;2.88;77.59
60589;BME280;46421;48.610;9.334;2023-01-28T10:20:27;98824.59;;;3.59;74.21
60589;BME280;46421;48.610;9.334;2023-01-28T10:23:10;98816.59;;;3.96;72.07
60589;BME280;46421;48.610;9.334;2023-01-28T10:25:40;98817.19;;;4.69;69.97
60589;BME280;46421;48.610;9.334;2023-01-28T10:28:18;98817.25;;;4.22;69.40
60589;BME280;46421;48.610;9.334;2023-01-28T10:30:45;98813.94;;;4.32;70.11
60589;BME280;46421;48.610;9.334;2023-01-28T10:33:35;98804.13;;;4.56;69.70
60589;BME280;46421;48.610;9.334;2023-01-28T10:36:01;98794.72;;;5.20;67.53
60589;BME280;46421;48.610;9.334;2023-01-28T10:38:27;98796.72;;;4.73;67.48
60589;BME280;46421;48.610;9.334;2023-01-28T10:41:00;98790.94;;;4.68;67.27
60589;BME280;46421;48.610;9.334;2023-01-28T10:43:30;98800.53;;;4.80;66.78
60589;BME280;46421;48.610;9.334;2023-01-28T10:46:02;98798.81;;;3.64;69.95
60589;BME280;46421;48.610;9.334;2023-01-28T10:48:33;98804.44;;;3.46;71.42
60589;BME280;46421;48.610;9.334;2023-01-28T10:51:03;98810.31;;;3.02;74.88
60589;BME280;46421;48.610;9.334;2023-01-28T10:53:38;98808.53;;;3.02;73.73
60589;BME280;46421;48.610;9.334;2023-01-28T10:56:07;98796.44;;;2.99;73.66
60589;BME280;46421;48.610;9.334;2023-01-28T10:58:46;98790.56;;;2.96;74.45
60589;BME280;46421;48.610;9.334;2023-01-28T11:01:12;98792.50;;;2.81;75.63
60589;BME280;46421;48.610;9.334;2023-01-28T11:03:38;98793.34;;;2.81;74.77
60589;BME280;46421;48.610;9.334;2023-01-28T11:06:05;98792.56;;;2.55;75.80
60589;BME280;46421;48.610;9.334;2023-01-28T11:08:30;98803.22;;;2.78;78.01
60589;BME280;46421;48.610;9.334;2023-01-28T11:11:13;98803.81;;;2.94;76.03
60589;BME280;46421;48.610;9.334;2023-01-28T11:13:48;98805.75;;;2.66;76.56
60589;BME280;46421;48.610;9.334;2023-01-28T11:16:16;98802.94;;;2.18;78.25
60589;BME280;46421;48.610;9.334;2023-01-28T11:18:54;98806.41;;;2.05;78.26
60589;BME280;46421;48.610;9.334;2023-01-28T11:21:23;98806.53;;;2.04;78.69
60589;BME280;46421;48.610;9.334;2023-01-28T11:23:55;98803.81;;;2.18;78.55
60589;BME280;46421;48.610;9.334;2023-01-28T11:26:26;98811.00;;;1.89;79.39
60589;BME280;46421;48.610;9.334;2023-01-28T11:28:54;98796.34;;;1.99;79.53
60589;BME280;46421;48.610;9.334;2023-01-28T11:31:21;98807.34;;;1.92;79.88
60589;BME280;46421;48.610;9.334;2023-01-28T11:36:21;98808.72;;;1.97;78.94
60589;BME280;46421;48.610;9.334;2023-01-28T11:38:54;98815.75;;;2.22;79.73
60589;BME280;46421;48.610;9.334;2023-01-28T11:41:31;98815.25;;;2.30;77.67
60589;BME280;46421;48.610;9.334;2023-01-28T11:43:59;98819.41;;;2.07;77.29
60589;BME280;46421;48.610;9.334;2023-01-28T11:46:59;98819.03;;;2.13;77.86
60589;BME280;46421;48.610;9.334;2023-01-28T11:52:43;98820.56;;;2.42;77.29
60589;BME280;46421;48.610;9.334;2023-01-28T12:01:02;98808.19;;;1.92;79.54
60589;BME280;46421;48.610;9.334;2023-01-28T12:03:54;98799.69;;;1.88;80.20
60589;BME280;46421;48.610;9.334;2023-01-28T12:09:34;98807.94;;;1.69;81.08
60589;BME280;46421;48.610;9.334;2023-01-28T12:18:12;98810.13;;;1.63;81.75
60589;BME280;46421;48.610;9.334;2023-01-28T12:21:04;98809.63;;;1.70;81.49
60589;BME280;46421;48.610;9.334;2023-01-28T12:32:00;98802.25;;;1.63;82.83
60589;BME280;46421;48.610;9.334;2023-01-28T12:42:43;98809.63;;;1.70;82.67
60589;BME280;46421;48.610;9.334;2023-01-28T12:45:15;98800.63;;;1.47;83.79
60589;BME280;46421;48.610;9.334;2023-01-28T12:47:48;98815.22;;;1.51;84.82
60589;BME280;46421;48.610;9.334;2023-01-28T12:50:27;98811.97;;;1.61;83.42
60589;BME280;46421;48.610;9.334;2023-01-28T12:53:00;98814.13;;;1.68;82.21
60589;BME280;46421;48.610;9.334;2023-01-28T12:55:44;98812.63;;;1.64;83.00
60589;BME280;46421;48.610;9.334;2023-01-28T12:58:17;98807.59;;;1.61;83.00
60589;BME280;46421;48.610;9.334;2023-01-28T13:00:49;98808.19;;;1.52;83.14
60589;BME280;46421;48.610;9.334;2023-01-28T13:03:42;98802.44;;;1.60;82.32
60589;BME280;46421;48.610;9.334;2023-01-28T13:06:18;98803.81;;;1.65;82.63
60589;BME280;46421;48.610;9.334;2023-01-28T13:08:48;98801.97;;;1.80;82.37
60589;BME280;46421;48.610;9.334;2023-01-28T13:11:16;98793.72;;;1.46;83.46
60589;BME280;46421;48.610;9.334;2023-01-28T13:13:44;98799.31;;;1.67;83.68
60589;BME280;46421;48.610;9.334;2023-01-28T13:16:11;98803.03;;;1.78;83.49
60589;BME280;46421;48.610;9.334;2023-01-28T13:26:36;98804.00;;;2.41;80.17
60589;BME280;46421;48.610;9.334;2023-01-28T13:29:16;98801.81;;;2.98;76.70
60589;BME280;46421;48.610;9.334;2023-01-28T13:31:44;98800.81;;;3.60;74.30
60589;BME280;46421;48.610;9.334;2023-01-28T13:34:35;98794.66;;;3.48;73.44
60589;BME280;46421;48.610;9.334;2023-01-28T13:37:33;98795.16;;;3.89;70.99
60589;BME280;46421;48.610;9.334;2023-01-28T13:42:36;98799.00;;;3.25;74.33
60589;BME280;46421;48.610;9.334;2023-01-28T13:47:47;98786.66;;;2.64;76.83
60589;BME280;46421;48.610;9.334;2023-01-28T13:50:20;98793.38;;;2.56;78.36
60589;BME280;46421;48.610;9.334;2023-01-28T13:52:52;98802.13;;;2.30;80.20
60589;BME280;46421;48.610;9.334;2023-01-28T13:55:22;98800.31;;;2.57;78.05
60589;BME280;46421;48.610;9.334;2023-01-28T14:15:00;98815.03;;;2.20;82.04
60589;BME280;46421;48.610;9.334;2023-01-28T14:17:50;98824.66;;;1.94;83.17
60589;BME280;46421;48.610;9.334;2023-01-28T14:23:16;98833.22;;;1.83;83.34
60589;BME280;46421;48.610;9.334;2023-01-28T14:28:59;98838.38;;;1.85;84.06
60589;BME280;46421;48.610;9.334;2023-01-28T14:31:30;98835.00;;;1.83;84.07
60589;BME280;46421;48.610;9.334;2023-01-28T14:34:06;98845.69;;;1.80;84.27
60589;BME280;46421;48.610;9.334;2023-01-28T14:36:43;98839.50;;;1.81;84.56
60589;BME280;46421;48.610;9.334;2023-01-28T14:39:14;98835.84;;;1.70;83.99
60589;BME280;46421;48.610;9.334;2023-01-28T14:41:42;98843.72;;;1.56;85.86
60589;BME280;46421;48.610;9.334;2023-01-28T14:44:08;98846.97;;;1.74;84.97
60589;BME280;46421;48.610;9.334;2023-01-28T14:46:51;98837.31;;;1.74;85.15
60589;BME280;46421;48.610;9.334;2023-01-28T14:49:33;98848.91;;;1.57;85.65
60589;BME280;46421;48.610;9.334;2023-01-28T14:52:32;98856.31;;;1.51;87.53
60589;BME280;46421;48.610;9.334;2023-01-28T14:55:17;98861.66;;;1.49;89.53
60589;BME280;46421;48.610;9.334;2023-01-28T14:57:51;98863.47;;;1.34;90.82
60589;BME280;46421;48.610;9.334;2023-01-28T15:00:24;98864.22;;;1.36;90.26
60589;BME280;46421;48.610;9.334;2023-01-28T15:02:50;98861.59;;;1.36;90.60